Terminal Aerodrome Forecast
Issued by NWS Springfield, MO

Home | Current Version | Previous Version | Text Only | Print | Product List | Glossary On
Versions: 1 2 3 4 5 6 7 8 9 10 11 12 13 14 15 16 17 18 19 20
612
FTUS43 KSGF 280520
TAFSGF
TAF
KSGF 280520Z 2806/2906 VRB04KT P6SM VCSH SCT007 BKN015 OVC050
      TEMPO 2806/2809 SCT015 BKN050
     FM280900 01004KT 6SM BR SCT007 BKN015 OVC025
      TEMPO 2810/2814 BKN007 OVC015
     FM281700 01010KT P6SM SCT040
     FM290000 02005KT P6SM SKC=

USA.gov is the U.S. government's official web portal to all federal, state and local government web resources and services.